sensor_id;sensor_type;location;lat;lon;timestamp;temperature;humidity
3860;DHT22;1945;52.036;8.614;2023-05-10T00:00:31;15.90;1.00
3860;DHT22;1945;52.036;8.614;2023-05-10T00:02:58;15.90;1.00
3860;DHT22;1945;52.036;8.614;2023-05-10T00:05:25;16.00;1.00
3860;DHT22;1945;52.036;8.614;2023-05-10T00:07:51;15.90;1.00
3860;DHT22;1945;52.036;8.614;2023-05-10T00:10:18;15.80;1.00
3860;DHT22;1945;52.036;8.614;2023-05-10T00:12:47;15.80;1.00
3860;DHT22;1945;52.036;8.614;2023-05-10T00:15:14;15.70;1.00
3860;DHT22;1945;52.036;8.614;2023-05-10T00:17:41;15.70;1.00
3860;DHT22;1945;52.036;8.614;2023-05-10T00:20:09;15.60;1.00
3860;DHT22;1945;52.036;8.614;2023-05-10T00:22:36;15.60;1.00
3860;DHT22;1945;52.036;8.614;2023-05-10T00:25:04;15.60;1.00
3860;DHT22;1945;52.036;8.614;2023-05-10T00:27:32;15.60;1.00
3860;DHT22;1945;52.036;8.614;2023-05-10T00:30:00;15.60;1.00
3860;DHT22;1945;52.036;8.614;2023-05-10T00:32:27;15.60;1.00
3860;DHT22;1945;52.036;8.614;2023-05-10T00:34:54;15.60;2.10
3860;DHT22;1945;52.036;8.614;2023-05-10T00:37:21;15.60;1.00
3860;DHT22;1945;52.036;8.614;2023-05-10T00:39:48;15.50;1.00
3860;DHT22;1945;52.036;8.614;2023-05-10T00:42:15;15.50;1.00
3860;DHT22;1945;52.036;8.614;2023-05-10T00:44:42;15.50;1.00
3860;DHT22;1945;52.036;8.614;2023-05-10T00:47:10;15.50;1.00
3860;DHT22;1945;52.036;8.614;2023-05-10T00:49:37;15.50;1.00
3860;DHT22;1945;52.036;8.614;2023-05-10T00:52:04;15.50;1.00
3860;DHT22;1945;52.036;8.614;2023-05-10T00:54:31;15.40;1.00
3860;DHT22;1945;52.036;8.614;2023-05-10T00:56:58;15.40;1.00
3860;DHT22;1945;52.036;8.614;2023-05-10T00:59:25;15.40;1.00
3860;DHT22;1945;52.036;8.614;2023-05-10T01:01:53;15.40;1.00
3860;DHT22;1945;52.036;8.614;2023-05-10T01:04:21;15.40;15.00
3860;DHT22;1945;52.036;8.614;2023-05-10T01:06:51;15.80;19.00
3860;DHT22;1945;52.036;8.614;2023-05-10T01:09:18;15.40;8.50
3860;DHT22;1945;52.036;8.614;2023-05-10T01:11:45;15.40;27.50
3860;DHT22;1945;52.036;8.614;2023-05-10T01:14:12;15.40;45.70
3860;DHT22;1945;52.036;8.614;2023-05-10T01:16:40;15.30;59.20
3860;DHT22;1945;52.036;8.614;2023-05-10T01:19:15;15.30;67.10
3860;DHT22;1945;52.036;8.614;2023-05-10T01:21:49;15.20;60.70
3860;DHT22;1945;52.036;8.614;2023-05-10T01:24:38;15.20;78.90
3860;DHT22;1945;52.036;8.614;2023-05-10T01:27:24;15.20;83.50
3860;DHT22;1945;52.036;8.614;2023-05-10T01:30:25;15.20;97.40
3860;DHT22;1945;52.036;8.614;2023-05-10T01:33:01;15.30;99.90
3860;DHT22;1945;52.036;8.614;2023-05-10T01:35:33;15.20;91.60
3860;DHT22;1945;52.036;8.614;2023-05-10T01:38:11;15.30;99.90
3860;DHT22;1945;52.036;8.614;2023-05-10T01:40:45;15.30;99.90
3860;DHT22;1945;52.036;8.614;2023-05-10T01:43:21;15.30;99.90
3860;DHT22;1945;52.036;8.614;2023-05-10T01:45:58;15.30;99.90
3860;DHT22;1945;52.036;8.614;2023-05-10T01:48:27;15.30;99.90
3860;DHT22;1945;52.036;8.614;2023-05-10T01:50:55;15.20;99.90
3860;DHT22;1945;52.036;8.614;2023-05-10T01:53:23;15.30;99.90
3860;DHT22;1945;52.036;8.614;2023-05-10T01:55:52;15.30;99.90
3860;DHT22;1945;52.036;8.614;2023-05-10T01:58:23;15.20;99.90
3860;DHT22;1945;52.036;8.614;2023-05-10T02:00:52;15.20;99.90
3860;DHT22;1945;52.036;8.614;2023-05-10T02:03:22;15.20;99.90
3860;DHT22;1945;52.036;8.614;2023-05-10T02:05:52;15.20;99.90
3860;DHT22;1945;52.036;8.614;2023-05-10T02:08:21;15.20;99.90
3860;DHT22;1945;52.036;8.614;2023-05-10T02:10:50;15.20;99.90
3860;DHT22;1945;52.036;8.614;2023-05-10T02:13:18;15.10;99.90
3860;DHT22;1945;52.036;8.614;2023-05-10T02:15:47;15.00;99.90
3860;DHT22;1945;52.036;8.614;2023-05-10T02:18:14;14.90;99.90
3860;DHT22;1945;52.036;8.614;2023-05-10T02:20:43;14.90;94.80
3860;DHT22;1945;52.036;8.614;2023-05-10T02:23:11;14.90;99.00
3860;DHT22;1945;52.036;8.614;2023-05-10T02:25:39;14.80;99.90
3860;DHT22;1945;52.036;8.614;2023-05-10T02:28:07;14.80;99.90
3860;DHT22;1945;52.036;8.614;2023-05-10T02:30:34;14.80;99.90
3860;DHT22;1945;52.036;8.614;2023-05-10T02:33:03;14.70;99.90
3860;DHT22;1945;52.036;8.614;2023-05-10T02:35:31;14.60;99.90
3860;DHT22;1945;52.036;8.614;2023-05-10T02:37:59;14.60;99.90
3860;DHT22;1945;52.036;8.614;2023-05-10T02:40:27;14.70;99.90
3860;DHT22;1945;52.036;8.614;2023-05-10T02:42:56;14.60;99.90
3860;DHT22;1945;52.036;8.614;2023-05-10T02:45:27;14.60;99.90
3860;DHT22;1945;52.036;8.614;2023-05-10T02:47:54;14.60;99.90
3860;DHT22;1945;52.036;8.614;2023-05-10T02:50:22;14.60;99.90
3860;DHT22;1945;52.036;8.614;2023-05-10T02:52:51;14.60;99.90
3860;DHT22;1945;52.036;8.614;2023-05-10T02:55:21;14.60;99.90
3860;DHT22;1945;52.036;8.614;2023-05-10T02:57:54;14.60;99.90
3860;DHT22;1945;52.036;8.614;2023-05-10T03:00:24;14.60;99.90
3860;DHT22;1945;52.036;8.614;2023-05-10T03:02:51;14.60;99.90
3860;DHT22;1945;52.036;8.614;2023-05-10T03:05:18;14.50;99.90
3860;DHT22;1945;52.036;8.614;2023-05-10T03:07:44;14.50;99.90
3860;DHT22;1945;52.036;8.614;2023-05-10T03:10:12;14.50;99.90
3860;DHT22;1945;52.036;8.614;2023-05-10T03:13:01;14.50;99.90
3860;DHT22;1945;52.036;8.614;2023-05-10T03:15:36;14.50;99.90
3860;DHT22;1945;52.036;8.614;2023-05-10T03:18:07;14.50;99.90
3860;DHT22;1945;52.036;8.614;2023-05-10T03:20:36;14.50;99.90
3860;DHT22;1945;52.036;8.614;2023-05-10T03:23:24;14.50;99.90
3860;DHT22;1945;52.036;8.614;2023-05-10T03:25:53;14.40;99.90
3860;DHT22;1945;52.036;8.614;2023-05-10T03:28:25;14.50;99.90
3860;DHT22;1945;52.036;8.614;2023-05-10T03:30:52;14.50;99.90
3860;DHT22;1945;52.036;8.614;2023-05-10T03:33:19;14.50;99.90
3860;DHT22;1945;52.036;8.614;2023-05-10T03:35:46;14.50;99.90
3860;DHT22;1945;52.036;8.614;2023-05-10T03:38:12;14.50;99.90
3860;DHT22;1945;52.036;8.614;2023-05-10T03:40:39;14.50;99.90
3860;DHT22;1945;52.036;8.614;2023-05-10T03:43:06;14.50;99.90
3860;DHT22;1945;52.036;8.614;2023-05-10T03:45:34;14.50;99.90
3860;DHT22;1945;52.036;8.614;2023-05-10T03:48:01;14.40;99.90
3860;DHT22;1945;52.036;8.614;2023-05-10T03:50:28;14.30;99.90
3860;DHT22;1945;52.036;8.614;2023-05-10T03:52:55;14.30;99.90
3860;DHT22;1945;52.036;8.614;2023-05-10T03:55:22;14.30;99.90
3860;DHT22;1945;52.036;8.614;2023-05-10T03:57:49;14.30;99.90
3860;DHT22;1945;52.036;8.614;2023-05-10T04:00:16;14.30;99.90
3860;DHT22;1945;52.036;8.614;2023-05-10T04:02:44;14.30;99.90
3860;DHT22;1945;52.036;8.614;2023-05-10T04:05:11;14.30;99.90
3860;DHT22;1945;52.036;8.614;2023-05-10T04:07:38;14.40;99.90
3860;DHT22;1945;52.036;8.614;2023-05-10T04:10:05;14.30;99.90
3860;DHT22;1945;52.036;8.614;2023-05-10T04:12:32;14.20;99.90
3860;DHT22;1945;52.036;8.614;2023-05-10T04:14:59;14.20;99.90
3860;DHT22;1945;52.036;8.614;2023-05-10T04:17:25;14.20;99.90
3860;DHT22;1945;52.036;8.614;2023-05-10T04:19:54;14.10;99.90
3860;DHT22;1945;52.036;8.614;2023-05-10T04:22:21;14.10;99.90
3860;DHT22;1945;52.036;8.614;2023-05-10T04:24:47;14.10;99.90
3860;DHT22;1945;52.036;8.614;2023-05-10T04:27:14;14.10;99.90
3860;DHT22;1945;52.036;8.614;2023-05-10T04:29:41;14.00;99.90
3860;DHT22;1945;52.036;8.614;2023-05-10T04:32:08;14.10;99.90
3860;DHT22;1945;52.036;8.614;2023-05-10T04:34:36;14.20;99.90
3860;DHT22;1945;52.036;8.614;2023-05-10T04:37:04;13.90;99.90
3860;DHT22;1945;52.036;8.614;2023-05-10T04:39:30;13.90;99.90
3860;DHT22;1945;52.036;8.614;2023-05-10T04:41:57;13.80;99.90
3860;DHT22;1945;52.036;8.614;2023-05-10T04:44:24;13.80;99.90
3860;DHT22;1945;52.036;8.614;2023-05-10T04:46:51;13.70;99.90
3860;DHT22;1945;52.036;8.614;2023-05-10T04:49:17;13.70;99.90
3860;DHT22;1945;52.036;8.614;2023-05-10T04:51:44;13.70;99.90
3860;DHT22;1945;52.036;8.614;2023-05-10T04:54:12;13.80;99.90
3860;DHT22;1945;52.036;8.614;2023-05-10T04:56:39;13.70;99.90
3860;DHT22;1945;52.036;8.614;2023-05-10T04:59:06;13.70;99.90
3860;DHT22;1945;52.036;8.614;2023-05-10T05:01:33;13.70;99.90
3860;DHT22;1945;52.036;8.614;2023-05-10T05:03:59;13.70;99.90
3860;DHT22;1945;52.036;8.614;2023-05-10T05:06:26;13.70;99.90
3860;DHT22;1945;52.036;8.614;2023-05-10T05:08:53;13.70;99.90
3860;DHT22;1945;52.036;8.614;2023-05-10T05:11:21;13.70;99.90
3860;DHT22;1945;52.036;8.614;2023-05-10T05:13:48;13.70;99.90
3860;DHT22;1945;52.036;8.614;2023-05-10T05:16:15;13.70;99.90
3860;DHT22;1945;52.036;8.614;2023-05-10T05:18:42;13.80;99.90
3860;DHT22;1945;52.036;8.614;2023-05-10T05:21:15;13.80;99.90
3860;DHT22;1945;52.036;8.614;2023-05-10T05:23:42;13.80;99.90
3860;DHT22;1945;52.036;8.614;2023-05-10T05:26:09;13.80;99.90
3860;DHT22;1945;52.036;8.614;2023-05-10T05:28:37;13.70;99.90
3860;DHT22;1945;52.036;8.614;2023-05-10T05:31:05;13.80;99.90
3860;DHT22;1945;52.036;8.614;2023-05-10T05:33:32;13.80;99.90
3860;DHT22;1945;52.036;8.614;2023-05-10T05:36:00;13.80;99.90
3860;DHT22;1945;52.036;8.614;2023-05-10T05:38:27;13.80;99.90
3860;DHT22;1945;52.036;8.614;2023-05-10T05:40:54;13.80;99.90
3860;DHT22;1945;52.036;8.614;2023-05-10T05:43:21;13.80;99.90
3860;DHT22;1945;52.036;8.614;2023-05-10T05:45:49;13.80;99.90
3860;DHT22;1945;52.036;8.614;2023-05-10T05:48:16;13.80;99.90
3860;DHT22;1945;52.036;8.614;2023-05-10T05:50:43;13.90;99.90
3860;DHT22;1945;52.036;8.614;2023-05-10T05:53:11;13.90;99.90
3860;DHT22;1945;52.036;8.614;2023-05-10T05:55:37;13.90;99.90
3860;DHT22;1945;52.036;8.614;2023-05-10T05:58:04;13.90;99.90
3860;DHT22;1945;52.036;8.614;2023-05-10T06:00:31;13.80;99.90
3860;DHT22;1945;52.036;8.614;2023-05-10T06:02:59;13.80;99.90
3860;DHT22;1945;52.036;8.614;2023-05-10T06:05:25;13.80;99.90
3860;DHT22;1945;52.036;8.614;2023-05-10T06:07:52;13.80;99.90
3860;DHT22;1945;52.036;8.614;2023-05-10T06:10:19;13.80;99.90
3860;DHT22;1945;52.036;8.614;2023-05-10T06:12:46;13.70;88.20
3860;DHT22;1945;52.036;8.614;2023-05-10T06:15:12;13.80;99.90
3860;DHT22;1945;52.036;8.614;2023-05-10T06:17:39;13.80;98.50
3860;DHT22;1945;52.036;8.614;2023-05-10T06:20:09;13.80;99.90
3860;DHT22;1945;52.036;8.614;2023-05-10T06:22:35;13.80;59.70
3860;DHT22;1945;52.036;8.614;2023-05-10T06:25:02;13.80;39.70
3860;DHT22;1945;52.036;8.614;2023-05-10T06:27:29;13.60;1.00
3860;DHT22;1945;52.036;8.614;2023-05-10T06:29:56;13.70;45.40
3860;DHT22;1945;52.036;8.614;2023-05-10T06:32:22;13.80;60.10
3860;DHT22;1945;52.036;8.614;2023-05-10T06:34:49;13.90;78.40
3860;DHT22;1945;52.036;8.614;2023-05-10T06:37:17;13.90;36.50
3860;DHT22;1945;52.036;8.614;2023-05-10T06:39:44;13.80;38.40
3860;DHT22;1945;52.036;8.614;2023-05-10T06:42:13;13.80;45.40
3860;DHT22;1945;52.036;8.614;2023-05-10T06:44:40;13.80;26.40
3860;DHT22;1945;52.036;8.614;2023-05-10T06:47:07;13.80;49.10
3860;DHT22;1945;52.036;8.614;2023-05-10T06:49:36;13.80;1.00
3860;DHT22;1945;52.036;8.614;2023-05-10T06:52:03;14.10;39.60
3860;DHT22;1945;52.036;8.614;2023-05-10T06:54:32;13.90;2.90
3860;DHT22;1945;52.036;8.614;2023-05-10T06:56:58;13.90;1.00
3860;DHT22;1945;52.036;8.614;2023-05-10T06:59:28;14.10;19.60
3860;DHT22;1945;52.036;8.614;2023-05-10T07:01:55;14.10;1.00
3860;DHT22;1945;52.036;8.614;2023-05-10T07:04:21;14.00;1.00
3860;DHT22;1945;52.036;8.614;2023-05-10T07:06:48;14.10;1.00
3860;DHT22;1945;52.036;8.614;2023-05-10T07:09:19;14.10;1.00
3860;DHT22;1945;52.036;8.614;2023-05-10T07:11:47;14.10;1.00
3860;DHT22;1945;52.036;8.614;2023-05-10T07:14:13;14.20;9.50
3860;DHT22;1945;52.036;8.614;2023-05-10T07:16:40;14.20;1.00
3860;DHT22;1945;52.036;8.614;2023-05-10T07:19:07;14.30;1.00
3860;DHT22;1945;52.036;8.614;2023-05-10T07:21:37;14.20;1.00
3860;DHT22;1945;52.036;8.614;2023-05-10T07:24:06;14.30;1.00
3860;DHT22;1945;52.036;8.614;2023-05-10T07:26:32;14.30;1.00
3860;DHT22;1945;52.036;8.614;2023-05-10T07:29:00;14.30;1.00
3860;DHT22;1945;52.036;8.614;2023-05-10T07:31:27;14.30;1.00
3860;DHT22;1945;52.036;8.614;2023-05-10T07:33:54;14.40;1.00
3860;DHT22;1945;52.036;8.614;2023-05-10T07:36:21;14.50;1.00
3860;DHT22;1945;52.036;8.614;2023-05-10T07:38:49;14.60;1.00
3860;DHT22;1945;52.036;8.614;2023-05-10T07:41:16;14.50;1.00
3860;DHT22;1945;52.036;8.614;2023-05-10T07:43:43;14.50;1.00
3860;DHT22;1945;52.036;8.614;2023-05-10T07:46:11;14.60;1.00
3860;DHT22;1945;52.036;8.614;2023-05-10T07:48:37;14.60;1.00
3860;DHT22;1945;52.036;8.614;2023-05-10T07:51:04;14.60;1.00
3860;DHT22;1945;52.036;8.614;2023-05-10T07:53:31;14.60;1.00
3860;DHT22;1945;52.036;8.614;2023-05-10T07:55:58;14.60;1.00
3860;DHT22;1945;52.036;8.614;2023-05-10T07:58:25;14.60;1.00
3860;DHT22;1945;52.036;8.614;2023-05-10T08:00:52;14.60;1.00
3860;DHT22;1945;52.036;8.614;2023-05-10T08:03:20;14.80;1.00
3860;DHT22;1945;52.036;8.614;2023-05-10T08:05:47;14.80;1.00
3860;DHT22;1945;52.036;8.614;2023-05-10T08:08:13;14.80;1.00
3860;DHT22;1945;52.036;8.614;2023-05-10T08:10:40;14.80;1.00
3860;DHT22;1945;52.036;8.614;2023-05-10T08:13:07;14.80;1.00
3860;DHT22;1945;52.036;8.614;2023-05-10T08:15:33;14.80;1.00
3860;DHT22;1945;52.036;8.614;2023-05-10T08:18:00;14.90;1.00
3860;DHT22;1945;52.036;8.614;2023-05-10T08:20:28;14.90;1.00
3860;DHT22;1945;52.036;8.614;2023-05-10T08:22:55;14.90;1.00
3860;DHT22;1945;52.036;8.614;2023-05-10T08:25:21;15.10;1.00
3860;DHT22;1945;52.036;8.614;2023-05-10T08:27:48;15.20;1.00
3860;DHT22;1945;52.036;8.614;2023-05-10T08:30:15;15.30;1.00
3860;DHT22;1945;52.036;8.614;2023-05-10T08:32:41;15.40;1.00
3860;DHT22;1945;52.036;8.614;2023-05-10T08:35:08;15.60;1.00
3860;DHT22;1945;52.036;8.614;2023-05-10T08:37:36;15.50;1.00
3860;DHT22;1945;52.036;8.614;2023-05-10T08:40:04;15.60;1.00
3860;DHT22;1945;52.036;8.614;2023-05-10T08:42:32;15.60;1.00
3860;DHT22;1945;52.036;8.614;2023-05-10T08:45:02;15.70;1.00
3860;DHT22;1945;52.036;8.614;2023-05-10T08:47:29;16.10;1.00
3860;DHT22;1945;52.036;8.614;2023-05-10T08:49:57;16.20;1.00
3860;DHT22;1945;52.036;8.614;2023-05-10T08:52:26;16.70;1.00
3860;DHT22;1945;52.036;8.614;2023-05-10T08:54:56;16.90;1.00
3860;DHT22;1945;52.036;8.614;2023-05-10T08:57:22;16.90;1.00
3860;DHT22;1945;52.036;8.614;2023-05-10T08:59:49;16.50;1.00
3860;DHT22;1945;52.036;8.614;2023-05-10T09:02:17;16.40;1.00
3860;DHT22;1945;52.036;8.614;2023-05-10T09:04:44;16.30;1.00
3860;DHT22;1945;52.036;8.614;2023-05-10T09:07:12;16.20;1.00
3860;DHT22;1945;52.036;8.614;2023-05-10T09:09:39;16.50;1.00
3860;DHT22;1945;52.036;8.614;2023-05-10T09:12:07;16.30;1.00
3860;DHT22;1945;52.036;8.614;2023-05-10T09:14:36;16.00;1.00
3860;DHT22;1945;52.036;8.614;2023-05-10T09:17:04;15.70;1.00
3860;DHT22;1945;52.036;8.614;2023-05-10T09:19:31;15.60;1.00
3860;DHT22;1945;52.036;8.614;2023-05-10T09:21:58;15.40;1.00
3860;DHT22;1945;52.036;8.614;2023-05-10T09:24:26;15.20;1.00
3860;DHT22;1945;52.036;8.614;2023-05-10T09:26:53;15.10;1.00
3860;DHT22;1945;52.036;8.614;2023-05-10T09:29:21;15.20;1.00
3860;DHT22;1945;52.036;8.614;2023-05-10T09:31:49;15.20;1.00
3860;DHT22;1945;52.036;8.614;2023-05-10T09:34:18;15.40;1.00
3860;DHT22;1945;52.036;8.614;2023-05-10T09:36:53;15.40;1.00
3860;DHT22;1945;52.036;8.614;2023-05-10T09:39:20;15.60;1.00
3860;DHT22;1945;52.036;8.614;2023-05-10T09:41:47;15.80;1.00
3860;DHT22;1945;52.036;8.614;2023-05-10T09:44:16;15.90;1.00
3860;DHT22;1945;52.036;8.614;2023-05-10T09:46:50;15.90;1.00
3860;DHT22;1945;52.036;8.614;2023-05-10T09:49:18;16.00;1.00
3860;DHT22;1945;52.036;8.614;2023-05-10T09:51:44;16.30;1.00
3860;DHT22;1945;52.036;8.614;2023-05-10T09:54:13;16.40;1.00
3860;DHT22;1945;52.036;8.614;2023-05-10T09:56:40;16.70;1.00
3860;DHT22;1945;52.036;8.614;2023-05-10T09:59:08;16.80;1.00
3860;DHT22;1945;52.036;8.614;2023-05-10T10:01:35;16.90;1.00
3860;DHT22;1945;52.036;8.614;2023-05-10T10:04:05;17.10;1.00
3860;DHT22;1945;52.036;8.614;2023-05-10T10:06:40;17.20;1.00
3860;DHT22;1945;52.036;8.614;2023-05-10T10:09:08;17.50;1.00
3860;DHT22;1945;52.036;8.614;2023-05-10T10:11:37;17.60;1.00
3860;DHT22;1945;52.036;8.614;2023-05-10T10:14:04;18.00;1.00
3860;DHT22;1945;52.036;8.614;2023-05-10T10:16:31;18.50;1.00
3860;DHT22;1945;52.036;8.614;2023-05-10T10:18:58;18.30;1.00
3860;DHT22;1945;52.036;8.614;2023-05-10T10:21:26;18.20;1.00
3860;DHT22;1945;52.036;8.614;2023-05-10T10:23:53;18.40;1.00
3860;DHT22;1945;52.036;8.614;2023-05-10T10:26:21;18.30;99.90
3860;DHT22;1945;52.036;8.614;2023-05-10T10:28:51;18.60;99.90
3860;DHT22;1945;52.036;8.614;2023-05-10T10:31:26;18.90;99.90
3860;DHT22;1945;52.036;8.614;2023-05-10T10:34:00;19.00;99.90
3860;DHT22;1945;52.036;8.614;2023-05-10T10:36:29;19.30;99.90
3860;DHT22;1945;52.036;8.614;2023-05-10T10:38:59;19.30;99.90
3860;DHT22;1945;52.036;8.614;2023-05-10T10:41:31;19.20;99.90
3860;DHT22;1945;52.036;8.614;2023-05-10T10:44:33;19.60;99.90
3860;DHT22;1945;52.036;8.614;2023-05-10T10:47:05;19.80;99.90
3860;DHT22;1945;52.036;8.614;2023-05-10T10:49:37;19.80;1.00
3860;DHT22;1945;52.036;8.614;2023-05-10T10:52:25;19.70;99.90
3860;DHT22;1945;52.036;8.614;2023-05-10T10:54:59;19.50;99.90
3860;DHT22;1945;52.036;8.614;2023-05-10T10:57:27;19.30;99.90
3860;DHT22;1945;52.036;8.614;2023-05-10T11:00:26;18.90;54.90
3860;DHT22;1945;52.036;8.614;2023-05-10T11:02:56;18.60;99.90
3860;DHT22;1945;52.036;8.614;2023-05-10T11:08:19;19.20;1.00
3860;DHT22;1945;52.036;8.614;2023-05-10T11:11:01;19.10;59.80
3860;DHT22;1945;52.036;8.614;2023-05-10T11:13:31;19.50;74.00
3860;DHT22;1945;52.036;8.614;2023-05-10T11:15:58;19.60;1.00
3860;DHT22;1945;52.036;8.614;2023-05-10T11:18:26;19.70;1.00
3860;DHT22;1945;52.036;8.614;2023-05-10T11:20:56;19.50;1.00
3860;DHT22;1945;52.036;8.614;2023-05-10T11:23:29;19.40;1.00
3860;DHT22;1945;52.036;8.614;2023-05-10T11:25:56;18.90;1.00
3860;DHT22;1945;52.036;8.614;2023-05-10T11:28:23;18.90;41.60
3860;DHT22;1945;52.036;8.614;2023-05-10T11:30:50;19.00;1.00
3860;DHT22;1945;52.036;8.614;2023-05-10T11:33:18;19.20;55.30
3860;DHT22;1945;52.036;8.614;2023-05-10T11:35:45;19.70;23.20
3860;DHT22;1945;52.036;8.614;2023-05-10T11:38:13;20.10;99.90
3860;DHT22;1945;52.036;8.614;2023-05-10T11:40:41;19.60;1.00
3860;DHT22;1945;52.036;8.614;2023-05-10T11:43:09;19.80;1.00
3860;DHT22;1945;52.036;8.614;2023-05-10T11:45:37;19.80;1.00
3860;DHT22;1945;52.036;8.614;2023-05-10T11:48:04;19.90;1.00
3860;DHT22;1945;52.036;8.614;2023-05-10T11:50:31;19.90;1.00
3860;DHT22;1945;52.036;8.614;2023-05-10T11:52:58;19.70;1.00
3860;DHT22;1945;52.036;8.614;2023-05-10T11:55:28;20.00;1.00
3860;DHT22;1945;52.036;8.614;2023-05-10T11:58:00;19.50;1.00
3860;DHT22;1945;52.036;8.614;2023-05-10T12:00:28;19.70;1.00
3860;DHT22;1945;52.036;8.614;2023-05-10T12:02:55;20.10;1.00
3860;DHT22;1945;52.036;8.614;2023-05-10T12:05:22;20.20;1.00
3860;DHT22;1945;52.036;8.614;2023-05-10T12:07:49;20.30;1.00
3860;DHT22;1945;52.036;8.614;2023-05-10T12:10:15;20.10;1.00
3860;DHT22;1945;52.036;8.614;2023-05-10T12:12:44;19.50;1.00
3860;DHT22;1945;52.036;8.614;2023-05-10T12:15:18;19.50;1.00
3860;DHT22;1945;52.036;8.614;2023-05-10T12:17:45;19.20;1.00
3860;DHT22;1945;52.036;8.614;2023-05-10T12:20:17;19.00;1.00
3860;DHT22;1945;52.036;8.614;2023-05-10T12:22:46;18.80;1.00
3860;DHT22;1945;52.036;8.614;2023-05-10T12:25:13;18.80;1.00
3860;DHT22;1945;52.036;8.614;2023-05-10T12:27:39;18.70;1.00
3860;DHT22;1945;52.036;8.614;2023-05-10T12:30:07;18.60;1.00
3860;DHT22;1945;52.036;8.614;2023-05-10T12:32:39;18.50;94.40
3860;DHT22;1945;52.036;8.614;2023-05-10T12:35:07;18.20;99.90
3860;DHT22;1945;52.036;8.614;2023-05-10T12:37:34;18.10;99.90
3860;DHT22;1945;52.036;8.614;2023-05-10T12:40:06;18.20;99.90
3860;DHT22;1945;52.036;8.614;2023-05-10T12:42:33;18.20;99.90
3860;DHT22;1945;52.036;8.614;2023-05-10T12:45:01;18.30;99.90
3860;DHT22;1945;52.036;8.614;2023-05-10T12:47:27;18.40;99.90
3860;DHT22;1945;52.036;8.614;2023-05-10T12:49:55;18.50;99.90
3860;DHT22;1945;52.036;8.614;2023-05-10T12:52:22;18.70;99.90
3860;DHT22;1945;52.036;8.614;2023-05-10T12:54:49;18.60;99.90
3860;DHT22;1945;52.036;8.614;2023-05-10T12:57:16;18.50;99.90
3860;DHT22;1945;52.036;8.614;2023-05-10T12:59:42;18.50;99.90
3860;DHT22;1945;52.036;8.614;2023-05-10T13:02:09;18.70;99.90
3860;DHT22;1945;52.036;8.614;2023-05-10T13:04:36;18.60;99.90
3860;DHT22;1945;52.036;8.614;2023-05-10T13:07:06;18.60;99.90
3860;DHT22;1945;52.036;8.614;2023-05-10T13:09:33;18.60;99.90
3860;DHT22;1945;52.036;8.614;2023-05-10T13:11:59;18.80;99.90
3860;DHT22;1945;52.036;8.614;2023-05-10T13:14:26;18.80;99.90
3860;DHT22;1945;52.036;8.614;2023-05-10T13:16:53;19.20;99.90
3860;DHT22;1945;52.036;8.614;2023-05-10T13:19:20;19.40;99.90
3860;DHT22;1945;52.036;8.614;2023-05-10T13:21:46;19.40;99.90
3860;DHT22;1945;52.036;8.614;2023-05-10T13:24:15;19.40;99.90
3860;DHT22;1945;52.036;8.614;2023-05-10T13:26:42;19.30;99.90
3860;DHT22;1945;52.036;8.614;2023-05-10T13:29:09;19.30;99.90
3860;DHT22;1945;52.036;8.614;2023-05-10T13:31:36;19.30;99.90
3860;DHT22;1945;52.036;8.614;2023-05-10T13:34:03;19.40;99.90
3860;DHT22;1945;52.036;8.614;2023-05-10T13:36:30;19.40;99.90
3860;DHT22;1945;52.036;8.614;2023-05-10T13:38:57;19.30;99.90
3860;DHT22;1945;52.036;8.614;2023-05-10T13:41:25;19.30;99.90
3860;DHT22;1945;52.036;8.614;2023-05-10T13:43:51;19.00;99.90
3860;DHT22;1945;52.036;8.614;2023-05-10T13:46:18;18.70;99.90
3860;DHT22;1945;52.036;8.614;2023-05-10T13:48:45;18.60;99.90
3860;DHT22;1945;52.036;8.614;2023-05-10T13:51:11;18.50;99.90
3860;DHT22;1945;52.036;8.614;2023-05-10T13:53:38;18.00;99.90
3860;DHT22;1945;52.036;8.614;2023-05-10T13:56:05;17.70;99.90
3860;DHT22;1945;52.036;8.614;2023-05-10T13:58:33;17.70;99.90
3860;DHT22;1945;52.036;8.614;2023-05-10T14:01:01;17.90;99.90
3860;DHT22;1945;52.036;8.614;2023-05-10T14:03:27;17.60;99.90
3860;DHT22;1945;52.036;8.614;2023-05-10T14:05:54;17.40;99.90
3860;DHT22;1945;52.036;8.614;2023-05-10T14:08:21;17.20;1.00
3860;DHT22;1945;52.036;8.614;2023-05-10T14:10:48;17.10;99.90
3860;DHT22;1945;52.036;8.614;2023-05-10T14:13:16;17.10;1.00
3860;DHT22;1945;52.036;8.614;2023-05-10T14:15:44;16.90;1.00
3860;DHT22;1945;52.036;8.614;2023-05-10T14:18:10;16.90;1.00
3860;DHT22;1945;52.036;8.614;2023-05-10T14:20:37;17.00;1.00
3860;DHT22;1945;52.036;8.614;2023-05-10T14:23:04;16.90;1.00
3860;DHT22;1945;52.036;8.614;2023-05-10T14:25:30;16.70;1.00
3860;DHT22;1945;52.036;8.614;2023-05-10T14:27:58;16.70;1.00
3860;DHT22;1945;52.036;8.614;2023-05-10T14:30:25;16.90;1.00
3860;DHT22;1945;52.036;8.614;2023-05-10T14:32:53;17.10;1.00
3860;DHT22;1945;52.036;8.614;2023-05-10T14:35:20;17.20;1.00
3860;DHT22;1945;52.036;8.614;2023-05-10T14:37:47;17.20;1.00
3860;DHT22;1945;52.036;8.614;2023-05-10T14:40:14;17.10;1.00
3860;DHT22;1945;52.036;8.614;2023-05-10T14:42:42;17.10;1.00
3860;DHT22;1945;52.036;8.614;2023-05-10T14:45:10;17.00;1.00
3860;DHT22;1945;52.036;8.614;2023-05-10T14:47:37;17.00;1.00
3860;DHT22;1945;52.036;8.614;2023-05-10T14:50:06;17.10;1.00
3860;DHT22;1945;52.036;8.614;2023-05-10T14:52:33;17.00;1.00
3860;DHT22;1945;52.036;8.614;2023-05-10T14:55:00;17.00;1.00
3860;DHT22;1945;52.036;8.614;2023-05-10T14:57:26;17.20;1.00
3860;DHT22;1945;52.036;8.614;2023-05-10T14:59:55;17.20;1.00
3860;DHT22;1945;52.036;8.614;2023-05-10T15:02:21;17.30;1.00
3860;DHT22;1945;52.036;8.614;2023-05-10T15:04:48;17.30;1.00
3860;DHT22;1945;52.036;8.614;2023-05-10T15:07:16;17.30;1.00
3860;DHT22;1945;52.036;8.614;2023-05-10T15:09:43;17.20;1.00
3860;DHT22;1945;52.036;8.614;2023-05-10T15:12:10;17.30;1.00
3860;DHT22;1945;52.036;8.614;2023-05-10T15:14:37;17.50;1.00
3860;DHT22;1945;52.036;8.614;2023-05-10T15:17:06;17.60;1.00
3860;DHT22;1945;52.036;8.614;2023-05-10T15:19:33;17.50;1.00
3860;DHT22;1945;52.036;8.614;2023-05-10T15:22:00;17.50;1.00
3860;DHT22;1945;52.036;8.614;2023-05-10T15:24:29;17.60;1.00
3860;DHT22;1945;52.036;8.614;2023-05-10T15:26:55;17.60;99.90
3860;DHT22;1945;52.036;8.614;2023-05-10T15:29:22;17.80;1.00
3860;DHT22;1945;52.036;8.614;2023-05-10T15:31:50;17.80;1.00
3860;DHT22;1945;52.036;8.614;2023-05-10T15:34:17;17.90;1.00
3860;DHT22;1945;52.036;8.614;2023-05-10T15:36:43;18.00;1.00
3860;DHT22;1945;52.036;8.614;2023-05-10T15:39:11;18.00;1.00
3860;DHT22;1945;52.036;8.614;2023-05-10T15:41:39;17.90;1.00
3860;DHT22;1945;52.036;8.614;2023-05-10T15:44:06;17.80;1.00
3860;DHT22;1945;52.036;8.614;2023-05-10T15:46:32;18.00;1.00
3860;DHT22;1945;52.036;8.614;2023-05-10T15:48:59;17.80;1.00
3860;DHT22;1945;52.036;8.614;2023-05-10T15:51:26;17.70;1.00
3860;DHT22;1945;52.036;8.614;2023-05-10T15:53:53;17.70;1.00
3860;DHT22;1945;52.036;8.614;2023-05-10T15:56:20;17.70;1.00
3860;DHT22;1945;52.036;8.614;2023-05-10T15:58:48;17.70;1.00
3860;DHT22;1945;52.036;8.614;2023-05-10T16:01:15;17.70;1.00
3860;DHT22;1945;52.036;8.614;2023-05-10T16:03:42;17.80;1.00
3860;DHT22;1945;52.036;8.614;2023-05-10T16:06:09;17.70;1.00
3860;DHT22;1945;52.036;8.614;2023-05-10T16:08:36;17.60;1.00
3860;DHT22;1945;52.036;8.614;2023-05-10T16:11:02;17.60;1.00
3860;DHT22;1945;52.036;8.614;2023-05-10T16:13:29;17.50;1.00
3860;DHT22;1945;52.036;8.614;2023-05-10T16:15:57;17.40;1.00
3860;DHT22;1945;52.036;8.614;2023-05-10T16:18:24;17.30;1.00